createdAt,value
2017-11-19T00:00:06.581Z,0
2017-11-19T00:01:15.400Z,0
2017-11-19T00:02:24.212Z,0
2017-11-19T00:03:33.860Z,0
2017-11-19T00:04:42.396Z,0
2017-11-19T00:05:51.203Z,0
2017-11-19T00:07:00.300Z,0
2017-11-19T00:08:08.838Z,0
2017-11-19T00:09:17.649Z,0
2017-11-19T00:10:26.185Z,0
2017-11-19T00:11:34.725Z,0
2017-11-19T00:12:43.267Z,0
2017-11-19T00:13:52.360Z,0
2017-11-19T00:15:01.442Z,0
2017-11-19T00:16:09.983Z,0
2017-11-19T00:17:18.786Z,0
2017-11-19T00:18:27.598Z,0
2017-11-19T00:19:36.140Z,0
2017-11-19T00:20:44.944Z,0
2017-11-19T00:21:54.023Z,0
2017-11-19T00:23:02.829Z,0
2017-11-19T00:24:11.693Z,0
2017-11-19T00:25:20.789Z,0
2017-11-19T00:26:29.864Z,0
2017-11-19T00:27:38.403Z,0
2017-11-19T00:28:47.208Z,0
2017-11-19T00:29:56.297Z,0
2017-11-19T00:31:04.833Z,0
2017-11-19T00:32:13.912Z,0
2017-11-19T00:33:22.453Z,0
2017-11-19T00:34:30.989Z,0
2017-11-19T00:35:39.793Z,0
2017-11-19T00:36:48.877Z,0
2017-11-19T00:37:57.691Z,0
2017-11-19T00:39:06.518Z,0
2017-11-19T00:40:15.308Z,0
2017-11-19T00:41:23.849Z,0
2017-11-19T00:42:32.950Z,0
2017-11-19T00:43:42.029Z,0
2017-11-19T00:44:50.562Z,0
2017-11-19T00:45:59.377Z,0
2017-11-19T00:47:08.452Z,0
2017-11-19T00:48:17.532Z,0
2017-11-19T00:49:26.356Z,0
2017-11-19T00:50:34.875Z,0
2017-11-19T00:51:44.122Z,0
2017-11-19T00:52:52.928Z,0
2017-11-19T00:54:01.734Z,0
2017-11-19T00:55:10.544Z,0
2017-11-19T00:56:19.349Z,0
2017-11-19T00:57:27.886Z,0
2017-11-19T00:58:36.421Z,0
2017-11-19T00:59:45.230Z,0
2017-11-19T01:00:53.767Z,0
2017-11-19T01:02:02.306Z,0
2017-11-19T01:03:10.838Z,0
2017-11-19T01:04:19.647Z,0
2017-11-19T01:05:28.181Z,0
2017-11-19T01:06:36.726Z,0
2017-11-19T01:07:45.809Z,0
2017-11-19T01:08:54.616Z,0
2017-11-19T01:10:03.708Z,0
2017-11-19T01:11:12.833Z,0
2017-11-19T01:12:21.638Z,0
2017-11-19T01:13:30.176Z,0
2017-11-19T01:14:38.990Z,0
2017-11-19T01:15:47.526Z,0
2017-11-19T01:16:56.064Z,0
2017-11-19T01:18:05.144Z,0
2017-11-19T01:19:14.226Z,0
2017-11-19T01:20:22.764Z,0
2017-11-19T01:21:31.303Z,0
2017-11-19T01:22:39.882Z,0
2017-11-19T01:23:49.436Z,0
2017-11-19T01:24:58.524Z,0
2017-11-19T01:26:07.483Z,0
2017-11-19T01:27:16.569Z,0
2017-11-19T01:28:25.105Z,0
2017-11-19T01:29:33.918Z,0
2017-11-19T01:30:42.998Z,0
2017-11-19T01:31:51.538Z,0
2017-11-19T01:33:00.348Z,0
2017-11-19T01:34:09.704Z,0
2017-11-19T01:35:18.617Z,0
2017-11-19T01:36:27.426Z,0
2017-11-19T01:37:35.963Z,0
2017-11-19T01:38:45.585Z,0
2017-11-19T01:39:54.399Z,0
2017-11-19T01:41:03.210Z,0
2017-11-19T01:42:11.745Z,0
2017-11-19T01:43:20.824Z,0
2017-11-19T01:44:30.176Z,0
2017-11-19T01:45:38.712Z,0
2017-11-19T01:46:47.794Z,0
2017-11-19T01:47:56.878Z,0
2017-11-19T01:49:05.978Z,0
2017-11-19T01:50:14.506Z,0
2017-11-19T01:51:23.586Z,0
2017-11-19T01:52:32.391Z,0
2017-11-19T01:53:41.475Z,0
2017-11-19T01:54:50.280Z,0
2017-11-19T01:55:59.088Z,0
2017-11-19T01:57:07.896Z,0
2017-11-19T01:58:17.243Z,0
2017-11-19T01:59:26.051Z,0
2017-11-19T02:00:34.599Z,0
2017-11-19T02:01:43.126Z,0
2017-11-19T02:02:51.944Z,0
2017-11-19T02:04:01.574Z,0
2017-11-19T02:05:10.111Z,0
2017-11-19T02:06:19.198Z,0
2017-11-19T02:07:27.736Z,0
2017-11-19T02:08:36.271Z,0
2017-11-19T02:09:45.909Z,0
2017-11-19T02:10:54.451Z,0
2017-11-19T02:12:02.988Z,0
2017-11-19T02:13:11.521Z,0
2017-11-19T02:14:20.057Z,0
2017-11-19T02:15:28.592Z,0
2017-11-19T02:16:37.128Z,0
2017-11-19T02:17:45.666Z,0
2017-11-19T02:18:54.203Z,0
2017-11-19T02:20:03.291Z,0
2017-11-19T02:21:11.829Z,0
2017-11-19T02:22:20.365Z,0
2017-11-19T02:23:28.958Z,0
2017-11-19T02:24:37.499Z,0
2017-11-19T02:25:46.402Z,0
2017-11-19T02:26:55.325Z,0
2017-11-19T02:28:03.998Z,0
2017-11-19T02:29:13.077Z,0
2017-11-19T02:30:21.613Z,0
2017-11-19T02:31:30.696Z,0
2017-11-19T02:32:39.785Z,0
2017-11-19T02:33:48.596Z,0
2017-11-19T02:34:57.416Z,0
2017-11-19T02:36:06.230Z,0
2017-11-19T02:37:14.774Z,0
2017-11-19T02:38:23.616Z,0
2017-11-19T02:39:32.429Z,0
2017-11-19T02:40:41.687Z,0
2017-11-19T02:41:51.203Z,0
2017-11-19T02:43:00.263Z,0
2017-11-19T02:44:09.075Z,0
2017-11-19T02:45:18.153Z,0
2017-11-19T02:46:26.959Z,0
2017-11-19T02:47:35.763Z,0
2017-11-19T02:48:44.578Z,0
2017-11-19T02:49:53.937Z,0
2017-11-19T02:51:02.756Z,0
2017-11-19T02:52:11.565Z,0
2017-11-19T02:53:20.102Z,0
2017-11-19T02:54:28.638Z,0
2017-11-19T02:55:37.718Z,0
2017-11-19T02:56:46.254Z,0
2017-11-19T02:57:54.791Z,0
2017-11-19T02:59:03.326Z,0
2017-11-19T03:00:12.138Z,0
2017-11-19T03:01:20.681Z,0
2017-11-19T03:02:29.489Z,0
2017-11-19T03:03:38.563Z,0
2017-11-19T03:04:47.647Z,0
2017-11-19T03:05:56.453Z,0
2017-11-19T03:07:04.987Z,0
2017-11-19T03:08:14.106Z,0
2017-11-19T03:09:22.914Z,0
2017-11-19T03:10:31.720Z,0
2017-11-19T03:11:40.531Z,0
2017-11-19T03:12:49.343Z,0
2017-11-19T03:13:57.874Z,0
2017-11-19T03:15:06.417Z,0
2017-11-19T03:16:15.777Z,0
2017-11-19T03:17:24.316Z,0
2017-11-19T03:18:33.127Z,0
2017-11-19T03:19:41.662Z,0
2017-11-19T03:20:50.472Z,0
2017-11-19T03:21:59.280Z,0
2017-11-19T03:23:08.365Z,0
2017-11-19T03:24:17.186Z,0
2017-11-19T03:25:25.725Z,0
2017-11-19T03:26:34.532Z,0
2017-11-19T03:27:43.339Z,0
2017-11-19T03:28:52.153Z,0
2017-11-19T03:30:00.691Z,0
2017-11-19T03:31:09.509Z,0
2017-11-19T03:32:18.597Z,0
2017-11-19T03:33:27.668Z,0
2017-11-19T03:34:36.476Z,0
2017-11-19T03:35:45.557Z,0
2017-11-19T03:36:54.098Z,0
2017-11-19T03:38:02.902Z,0
2017-11-19T03:39:11.710Z,0
2017-11-19T03:40:20.515Z,0
2017-11-19T03:41:29.057Z,0
2017-11-19T03:42:37.580Z,0
2017-11-19T03:43:46.115Z,0
2017-11-19T03:44:54.921Z,0
2017-11-19T03:46:04.156Z,0
2017-11-19T03:47:13.088Z,0
2017-11-19T03:48:21.622Z,0
2017-11-19T03:49:30.429Z,0
2017-11-19T03:50:39.508Z,0
2017-11-19T03:51:48.317Z,0
2017-11-19T03:52:57.126Z,0
2017-11-19T03:54:05.931Z,0
2017-11-19T03:55:15.398Z,0
2017-11-19T03:56:23.936Z,0
2017-11-19T03:57:32.475Z,0
2017-11-19T03:58:41.837Z,0
2017-11-19T03:59:50.920Z,0
2017-11-19T04:00:59.733Z,0
2017-11-19T04:02:08.531Z,0
2017-11-19T04:03:17.345Z,0
2017-11-19T04:04:26.152Z,0
2017-11-19T04:05:34.689Z,0
2017-11-19T04:06:43.223Z,0
2017-11-19T04:07:52.304Z,0
2017-11-19T04:09:01.116Z,0
2017-11-19T04:10:09.649Z,0
2017-11-19T04:11:18.460Z,0
2017-11-19T04:12:27.277Z,0
2017-11-19T04:13:36.355Z,0
2017-11-19T04:14:45.163Z,0
2017-11-19T04:15:54.242Z,0
2017-11-19T04:17:02.777Z,0
2017-11-19T04:18:11.586Z,0
2017-11-19T04:19:20.119Z,0
2017-11-19T04:20:28.931Z,0
2017-11-19T04:21:37.464Z,0
2017-11-19T04:22:45.999Z,0
2017-11-19T04:23:55.082Z,0
2017-11-19T04:25:03.897Z,0
2017-11-19T04:26:12.978Z,0
2017-11-19T04:27:22.059Z,0
2017-11-19T04:28:30.876Z,0
2017-11-19T04:29:39.962Z,0
2017-11-19T04:30:48.769Z,0
2017-11-19T04:31:57.579Z,0
2017-11-19T04:33:06.113Z,0
2017-11-19T04:34:14.920Z,0
2017-11-19T04:35:23.728Z,0
2017-11-19T04:36:33.354Z,0
2017-11-19T04:37:42.165Z,0
2017-11-19T04:38:50.695Z,0
2017-11-19T04:39:59.235Z,0
2017-11-19T04:41:07.771Z,0
2017-11-19T04:42:16.579Z,0
2017-11-19T04:43:25.389Z,0
2017-11-19T04:44:33.916Z,0
2017-11-19T04:45:43.271Z,0
2017-11-19T04:46:51.808Z,0
2017-11-19T04:48:00.342Z,0
2017-11-19T04:49:08.879Z,0
2017-11-19T04:50:17.413Z,0
2017-11-19T04:51:25.953Z,0
2017-11-19T04:52:34.761Z,0
2017-11-19T04:53:43.580Z,0
2017-11-19T04:54:52.112Z,0
2017-11-19T04:56:00.652Z,0
2017-11-19T04:57:09.453Z,0
2017-11-19T04:58:17.987Z,0
2017-11-19T04:59:26.520Z,0
2017-11-19T05:00:35.261Z,0
2017-11-19T05:01:44.440Z,0
2017-11-19T05:02:53.567Z,0
2017-11-19T05:04:02.469Z,0
2017-11-19T05:05:11.632Z,0
2017-11-19T05:06:20.501Z,0
2017-11-19T05:07:30.015Z,0
2017-11-19T05:08:39.164Z,0
2017-11-19T05:09:48.028Z,0
2017-11-19T05:10:57.519Z,0
2017-11-19T05:12:06.748Z,0
2017-11-19T05:13:15.951Z,0
2017-11-19T05:14:25.473Z,0
2017-11-19T05:15:34.713Z,0
2017-11-19T05:16:43.547Z,0
2017-11-19T05:17:52.437Z,0
2017-11-19T05:19:01.413Z,0
2017-11-19T05:20:10.775Z,0
2017-11-19T05:21:19.309Z,0
2017-11-19T05:22:28.115Z,0
2017-11-19T05:23:36.653Z,0
2017-11-19T05:24:45.462Z,0
2017-11-19T05:25:54.264Z,0
2017-11-19T05:27:02.803Z,0
2017-11-19T05:28:11.613Z,0
2017-11-19T05:29:20.420Z,0
2017-11-19T05:30:29.228Z,0
2017-11-19T05:31:37.766Z,0
2017-11-19T05:32:46.583Z,0
2017-11-19T05:33:55.380Z,0
2017-11-19T05:35:03.916Z,0
2017-11-19T05:36:12.724Z,0
2017-11-19T05:37:21.262Z,0
2017-11-19T05:38:30.068Z,0
2017-11-19T05:39:38.881Z,0
2017-11-19T05:40:47.968Z,0
2017-11-19T05:41:56.782Z,0
2017-11-19T05:43:05.319Z,0
2017-11-19T05:44:13.856Z,0
2017-11-19T05:45:23.219Z,0
2017-11-19T05:46:31.755Z,0
2017-11-19T05:47:40.290Z,0
2017-11-19T05:48:49.098Z,0
2017-11-19T05:49:58.175Z,0
2017-11-19T05:51:06.990Z,0
2017-11-19T05:52:15.527Z,0
2017-11-19T05:53:24.614Z,0
2017-11-19T05:54:33.701Z,0
2017-11-19T05:55:42.506Z,0
2017-11-19T05:56:51.317Z,0
2017-11-19T05:58:00.151Z,0
2017-11-19T05:59:08.961Z,0
2017-11-19T06:00:17.763Z,0
2017-11-19T06:01:26.848Z,0
2017-11-19T06:02:35.653Z,0
2017-11-19T06:03:44.466Z,0
2017-11-19T06:04:52.998Z,0
2017-11-19T06:06:01.532Z,0
2017-11-19T06:07:10.066Z,0
2017-11-19T06:08:18.869Z,0
2017-11-19T06:09:27.949Z,0
2017-11-19T06:10:36.517Z,0
2017-11-19T06:11:45.291Z,0
2017-11-19T06:12:53.835Z,0
2017-11-19T06:14:02.643Z,0
2017-11-19T06:15:11.460Z,0
2017-11-19T06:16:20.274Z,0
2017-11-19T06:17:29.077Z,0
2017-11-19T06:18:37.613Z,0
2017-11-19T06:19:46.426Z,0
2017-11-19T06:20:55.502Z,0
2017-11-19T06:22:04.317Z,0
2017-11-19T06:23:12.850Z,0
2017-11-19T06:24:21.382Z,0
2017-11-19T06:25:30.481Z,4
2017-11-19T06:26:39.013Z,4
2017-11-19T06:27:47.548Z,0
2017-11-19T06:28:56.081Z,4
2017-11-19T06:30:04.614Z,4
2017-11-19T06:31:13.427Z,4
2017-11-19T06:32:22.263Z,4
2017-11-19T06:33:30.797Z,8
2017-11-19T06:34:39.885Z,8
2017-11-19T06:35:48.695Z,12
2017-11-19T06:36:57.501Z,12
2017-11-19T06:38:06.043Z,12
2017-11-19T06:39:14.850Z,16
2017-11-19T06:40:23.393Z,20
2017-11-19T06:41:32.462Z,24
2017-11-19T06:42:41.268Z,28
2017-11-19T06:43:49.803Z,28
2017-11-19T06:44:58.337Z,32
2017-11-19T06:46:07.414Z,40
2017-11-19T06:47:16.497Z,40
2017-11-19T06:48:25.305Z,48
2017-11-19T06:49:34.392Z,56
2017-11-19T06:50:42.929Z,64
2017-11-19T06:51:51.464Z,76
2017-11-19T06:52:59.999Z,88
2017-11-19T06:54:08.532Z,100
2017-11-19T06:55:17.069Z,112
2017-11-19T06:56:25.607Z,132
2017-11-19T06:57:34.413Z,144
2017-11-19T06:58:43.229Z,148
2017-11-19T06:59:51.757Z,164
2017-11-19T07:01:00.842Z,180
2017-11-19T07:02:09.653Z,196
2017-11-19T07:03:18.456Z,212
2017-11-19T07:04:26.990Z,232
2017-11-19T07:05:35.799Z,256
2017-11-19T07:06:44.601Z,280
2017-11-19T07:07:53.142Z,304
2017-11-19T07:09:01.671Z,328
2017-11-19T07:10:10.204Z,356
2017-11-19T07:11:19.008Z,380
2017-11-19T07:12:27.818Z,400
2017-11-19T07:13:36.622Z,420
2017-11-19T07:14:45.438Z,444
2017-11-19T07:15:54.251Z,484
2017-11-19T07:17:03.336Z,492
2017-11-19T07:18:12.142Z,540
2017-11-19T07:19:20.677Z,564
2017-11-19T07:20:29.215Z,592
2017-11-19T07:21:38.309Z,620
2017-11-19T07:22:47.403Z,644
2017-11-19T07:23:56.484Z,672
2017-11-19T07:25:05.295Z,700
2017-11-19T07:26:14.119Z,724
2017-11-19T07:27:22.652Z,752
2017-11-19T07:28:31.472Z,780
2017-11-19T07:29:40.052Z,804
2017-11-19T07:30:48.869Z,832
2017-11-19T07:31:57.400Z,860
2017-11-19T07:33:05.936Z,888
2017-11-19T07:34:14.744Z,920
2017-11-19T07:35:23.334Z,952
2017-11-19T07:36:32.139Z,976
2017-11-19T07:37:40.674Z,1020
2017-11-19T07:38:50.031Z,1064
2017-11-19T07:39:58.566Z,1080
2017-11-19T07:41:07.373Z,1108
2017-11-19T07:42:16.993Z,1172
2017-11-19T07:43:26.084Z,1204
2017-11-19T07:44:34.891Z,1232
2017-11-19T07:45:43.427Z,1252
2017-11-19T07:46:52.234Z,1276
2017-11-19T07:48:00.774Z,1296
2017-11-19T07:49:09.582Z,1316
2017-11-19T07:50:18.118Z,1336
2017-11-19T07:51:26.925Z,1352
2017-11-19T07:52:35.732Z,1376
2017-11-19T07:53:44.541Z,1392
2017-11-19T07:54:53.347Z,1420
2017-11-19T07:56:02.150Z,1440
2017-11-19T07:57:10.958Z,1452
2017-11-19T07:58:20.314Z,1476
2017-11-19T07:59:28.851Z,1436
2017-11-19T08:00:37.661Z,1504
2017-11-19T08:01:46.481Z,1544
2017-11-19T08:02:55.831Z,1560
2017-11-19T08:04:04.641Z,1576
2017-11-19T08:05:14.003Z,1600
2017-11-19T08:06:22.546Z,1632
2017-11-19T08:07:31.349Z,1640
2017-11-19T08:08:40.427Z,1716
2017-11-19T08:09:49.241Z,1760
2017-11-19T08:10:58.053Z,1888
2017-11-19T08:12:07.685Z,1764
2017-11-19T08:13:16.220Z,1756
2017-11-19T08:14:25.586Z,1764
2017-11-19T08:15:34.444Z,1784
2017-11-19T08:16:43.224Z,1792
2017-11-19T08:17:52.304Z,1816
2017-11-19T08:19:00.844Z,1844
2017-11-19T08:20:09.653Z,1856
2017-11-19T08:21:18.461Z,1872
2017-11-19T08:22:27.817Z,1888
2017-11-19T08:23:36.352Z,1896
2017-11-19T08:24:44.886Z,1908
2017-11-19T08:25:53.420Z,1924
2017-11-19T08:27:02.227Z,1944
2017-11-19T08:28:11.310Z,1984
2017-11-19T08:29:20.677Z,2008
2017-11-19T08:30:29.758Z,2036
2017-11-19T08:31:38.295Z,2044
2017-11-19T08:32:47.114Z,2044
2017-11-19T08:33:56.205Z,1968
2017-11-19T08:35:05.018Z,2076
2017-11-19T08:36:13.827Z,2268
2017-11-19T08:37:22.361Z,2996
2017-11-19T08:38:31.178Z,2896
2017-11-19T08:39:39.998Z,2992
2017-11-19T08:40:48.810Z,3100
2017-11-19T08:41:57.612Z,2476
2017-11-19T08:43:06.422Z,2016
2017-11-19T08:44:14.967Z,2076
2017-11-19T08:45:23.505Z,1928
2017-11-19T08:46:32.306Z,1908
2017-11-19T08:47:41.115Z,1948
2017-11-19T08:48:49.656Z,2076
2017-11-19T08:49:58.464Z,2136
2017-11-19T08:51:07.541Z,2228
2017-11-19T08:52:16.345Z,2240
2017-11-19T08:53:24.881Z,2244
2017-11-19T08:54:33.695Z,2244
2017-11-19T08:55:42.501Z,2244
2017-11-19T08:56:51.308Z,2232
2017-11-19T08:58:00.386Z,2220
2017-11-19T08:59:08.920Z,2228
2017-11-19T09:00:17.460Z,2248
2017-11-19T09:01:25.988Z,2268
2017-11-19T09:02:34.791Z,2284
2017-11-19T09:03:43.600Z,2288
2017-11-19T09:04:52.135Z,2292
2017-11-19T09:06:00.951Z,2288
2017-11-19T09:07:09.483Z,2308
2017-11-19T09:08:18.017Z,2328
2017-11-19T09:09:26.551Z,2340
2017-11-19T09:10:35.086Z,2348
2017-11-19T09:11:43.895Z,2356
2017-11-19T09:12:52.999Z,2364
2017-11-19T09:14:02.084Z,2360
2017-11-19T09:15:10.898Z,2356
2017-11-19T09:16:19.438Z,2356
2017-11-19T09:17:28.246Z,2360
2017-11-19T09:18:37.333Z,2372
2017-11-19T09:19:46.416Z,2372
2017-11-19T09:20:54.951Z,2388
2017-11-19T09:22:04.031Z,2396
2017-11-19T09:23:13.394Z,2392
2017-11-19T09:24:21.930Z,2436
2017-11-19T09:25:30.466Z,2456
2017-11-19T09:26:39.273Z,2472
2017-11-19T09:27:47.809Z,2484
2017-11-19T09:28:56.890Z,2496
2017-11-19T09:30:05.973Z,2508
2017-11-19T09:31:14.797Z,2500
2017-11-19T09:32:23.608Z,2508
2017-11-19T09:33:32.419Z,2512
2017-11-19T09:34:41.769Z,2512
2017-11-19T09:35:50.856Z,2516
2017-11-19T09:36:59.939Z,2520
2017-11-19T09:38:09.022Z,2528
2017-11-19T09:39:18.371Z,2540
2017-11-19T09:40:27.183Z,2556
2017-11-19T09:41:35.990Z,2568
2017-11-19T09:42:45.074Z,2564
2017-11-19T09:43:53.609Z,2576
2017-11-19T09:45:03.391Z,2592
2017-11-19T09:46:12.206Z,2616
2017-11-19T09:47:21.282Z,2692
2017-11-19T09:48:30.089Z,2732
2017-11-19T09:49:38.625Z,2692
2017-11-19T09:50:47.435Z,2660
2017-11-19T09:51:56.249Z,2672
2017-11-19T09:53:05.333Z,2688
2017-11-19T09:54:13.867Z,2684
2017-11-19T09:55:22.948Z,2700
2017-11-19T09:56:31.761Z,2684
2017-11-19T09:57:40.296Z,2688
2017-11-19T09:58:49.108Z,2684
2017-11-19T09:59:57.651Z,2696
2017-11-19T10:01:07.030Z,2720
2017-11-19T10:02:15.582Z,2744
2017-11-19T10:03:24.121Z,2752
2017-11-19T10:04:32.657Z,2760
2017-11-19T10:05:41.220Z,2804
2017-11-19T10:06:50.031Z,3160
2017-11-19T10:07:59.122Z,4220
2017-11-19T10:09:07.668Z,4812
2017-11-19T10:10:16.477Z,5284
2017-11-19T10:11:25.305Z,4636
2017-11-19T10:12:33.848Z,4096
2017-11-19T10:13:42.937Z,3048
2017-11-19T10:14:51.556Z,3796
2017-11-19T10:16:00.094Z,3356
2017-11-19T10:17:08.916Z,2676
2017-11-19T10:18:17.453Z,2900
2017-11-19T10:19:25.992Z,3476
2017-11-19T10:20:34.530Z,3224
2017-11-19T10:21:43.610Z,2876
2017-11-19T10:22:52.421Z,2876
2017-11-19T10:24:01.512Z,2848
2017-11-19T10:25:10.048Z,2728
2017-11-19T10:26:18.857Z,2792
2017-11-19T10:27:27.395Z,2804
2017-11-19T10:28:35.931Z,2804
2017-11-19T10:29:44.468Z,3028
2017-11-19T10:30:53.018Z,2788
2017-11-19T10:32:01.825Z,2776
2017-11-19T10:33:10.645Z,2808
2017-11-19T10:34:19.183Z,2812
2017-11-19T10:35:28.271Z,2780
2017-11-19T10:36:36.873Z,2616
2017-11-19T10:37:45.498Z,2400
2017-11-19T10:38:54.557Z,2384
2017-11-19T10:40:03.100Z,2396
2017-11-19T10:41:11.643Z,2420
2017-11-19T10:42:20.179Z,2512
2017-11-19T10:43:28.716Z,2808
2017-11-19T10:44:37.256Z,2816
2017-11-19T10:45:46.066Z,2764
2017-11-19T10:46:55.199Z,2748
2017-11-19T10:48:03.741Z,2756
2017-11-19T10:49:12.819Z,2752
2017-11-19T10:50:21.909Z,2764
2017-11-19T10:51:30.450Z,2760
2017-11-19T10:52:39.266Z,2764
2017-11-19T10:53:48.633Z,2776
2017-11-19T10:54:57.755Z,2768
2017-11-19T10:56:06.839Z,2772
2017-11-19T10:57:16.200Z,2772
2017-11-19T10:58:24.742Z,2756
2017-11-19T10:59:33.273Z,2764
2017-11-19T11:00:42.083Z,2764
2017-11-19T11:01:50.620Z,2776
2017-11-19T11:02:59.731Z,2780
2017-11-19T11:04:08.818Z,2768
2017-11-19T11:05:18.473Z,2780
2017-11-19T11:06:27.039Z,2800
2017-11-19T11:07:35.851Z,2804
2017-11-19T11:08:44.391Z,2816
2017-11-19T11:09:53.200Z,2836
2017-11-19T11:11:01.736Z,2864
2017-11-19T11:12:10.547Z,2988
2017-11-19T11:13:19.358Z,3180
2017-11-19T11:14:28.171Z,3192
2017-11-19T11:15:37.247Z,3508
2017-11-19T11:16:46.070Z,4452
2017-11-19T11:17:54.878Z,4416
2017-11-19T11:19:03.415Z,4760
2017-11-19T11:20:11.986Z,5040
2017-11-19T11:21:20.526Z,5556
2017-11-19T11:22:29.608Z,5488
2017-11-19T11:23:38.415Z,6116
2017-11-19T11:24:47.240Z,6232
2017-11-19T11:25:55.781Z,6080
2017-11-19T11:27:04.626Z,5468
2017-11-19T11:28:13.691Z,4228
2017-11-19T11:29:22.277Z,3604
2017-11-19T11:30:31.111Z,3440
2017-11-19T11:31:39.719Z,3144
2017-11-19T11:32:49.049Z,2980
2017-11-19T11:33:57.648Z,3132
2017-11-19T11:35:06.916Z,3268
2017-11-19T11:36:16.073Z,3436
2017-11-19T11:37:24.629Z,4800
2017-11-19T11:38:33.271Z,4736
2017-11-19T11:39:41.927Z,4212
2017-11-19T11:40:50.584Z,3740
2017-11-19T11:41:59.444Z,4236
2017-11-19T11:43:08.341Z,3364
2017-11-19T11:44:16.877Z,3800
2017-11-19T11:45:25.484Z,3284
2017-11-19T11:46:34.755Z,3116
2017-11-19T11:47:43.976Z,3140
2017-11-19T11:48:52.922Z,3016
2017-11-19T11:50:01.493Z,2940
2017-11-19T11:51:10.667Z,2992
2017-11-19T11:52:19.457Z,2992
2017-11-19T11:53:28.373Z,3040
2017-11-19T11:54:37.474Z,3092
2017-11-19T11:55:46.644Z,3084
2017-11-19T11:56:55.254Z,3184
2017-11-19T11:58:04.208Z,3040
2017-11-19T11:59:13.014Z,3004
2017-11-19T12:00:21.829Z,3048
2017-11-19T12:01:31.138Z,3656
2017-11-19T12:02:39.734Z,3456
2017-11-19T12:03:48.264Z,3380
2017-11-19T12:04:56.956Z,4340
2017-11-19T12:06:06.138Z,3736
2017-11-19T12:07:14.683Z,3396
2017-11-19T12:08:23.549Z,3664
2017-11-19T12:09:32.309Z,3740
2017-11-19T12:10:41.213Z,4108
2017-11-19T12:11:50.225Z,4900
2017-11-19T12:12:58.888Z,6012
2017-11-19T12:14:07.795Z,6016
2017-11-19T12:15:16.944Z,6564
2017-11-19T12:16:25.536Z,7252
2017-11-19T12:17:34.194Z,6496
2017-11-19T12:18:43.089Z,5624
2017-11-19T12:19:51.905Z,6780
2017-11-19T12:21:01.255Z,5684
2017-11-19T12:22:10.068Z,5984
2017-11-19T12:23:18.880Z,8412
2017-11-19T12:24:27.959Z,9768
2017-11-19T12:25:37.057Z,8640
2017-11-19T12:26:46.142Z,6844
2017-11-19T12:27:54.681Z,5016
2017-11-19T12:29:03.764Z,4244
2017-11-19T12:30:13.122Z,3572
2017-11-19T12:31:21.936Z,3740
2017-11-19T12:32:30.753Z,4180
2017-11-19T12:33:39.567Z,5164
2017-11-19T12:34:48.653Z,6076
2017-11-19T12:35:57.739Z,5464
2017-11-19T12:37:06.280Z,7180
2017-11-19T12:38:15.098Z,8572
2017-11-19T12:39:23.922Z,7540
2017-11-19T12:40:32.743Z,5892
2017-11-19T12:41:41.284Z,5496
2017-11-19T12:42:49.820Z,5648
2017-11-19T12:43:58.358Z,5728
2017-11-19T12:45:06.901Z,5404
2017-11-19T12:46:15.985Z,7224
2017-11-19T12:47:24.527Z,6292
2017-11-19T12:48:33.067Z,5564
2017-11-19T12:49:41.880Z,4268
2017-11-19T12:50:50.446Z,2852
2017-11-19T12:51:59.264Z,2080
2017-11-19T12:53:07.798Z,1792
2017-11-19T12:54:16.606Z,1836
2017-11-19T12:55:25.147Z,2060
2017-11-19T12:56:33.686Z,2552
2017-11-19T12:57:42.499Z,3576
2017-11-19T12:58:51.040Z,4720
2017-11-19T13:00:00.135Z,4880
2017-11-19T13:01:08.680Z,4336
2017-11-19T13:02:17.485Z,3544
2017-11-19T13:03:26.300Z,3260
2017-11-19T13:04:34.840Z,3612
2017-11-19T13:05:44.211Z,3128
2017-11-19T13:06:52.751Z,3720
2017-11-19T13:08:01.838Z,4588
2017-11-19T13:09:10.654Z,5060
2017-11-19T13:10:19.745Z,3988
2017-11-19T13:11:28.285Z,2764
2017-11-19T13:12:36.835Z,2812
2017-11-19T13:13:45.922Z,3272
2017-11-19T13:14:54.736Z,3096
2017-11-19T13:16:03.825Z,3576
2017-11-19T13:17:12.904Z,3368
2017-11-19T13:18:21.718Z,2828
2017-11-19T13:19:30.263Z,3384
2017-11-19T13:20:39.388Z,3176
2017-11-19T13:21:47.940Z,2460
2017-11-19T13:22:57.036Z,1660
2017-11-19T13:24:05.577Z,1068
2017-11-19T13:25:14.112Z,1600
2017-11-19T13:26:22.964Z,2596
2017-11-19T13:27:31.775Z,2396
2017-11-19T13:28:40.394Z,2232
2017-11-19T13:29:49.026Z,2160
2017-11-19T13:30:57.658Z,1964
2017-11-19T13:32:06.195Z,1596
2017-11-19T13:33:15.155Z,1416
2017-11-19T13:34:23.967Z,1352
2017-11-19T13:35:32.719Z,1416
2017-11-19T13:36:41.594Z,1460
2017-11-19T13:37:50.132Z,1864
2017-11-19T13:38:59.224Z,2568
2017-11-19T13:40:08.320Z,2252
2017-11-19T13:41:17.131Z,1924
2017-11-19T13:42:25.696Z,1856
2017-11-19T13:43:34.511Z,1844
2017-11-19T13:44:43.325Z,1836
2017-11-19T13:45:52.124Z,1824
2017-11-19T13:47:00.663Z,1816
2017-11-19T13:48:09.751Z,1832
2017-11-19T13:49:18.575Z,1860
2017-11-19T13:50:27.384Z,1908
2017-11-19T13:51:35.921Z,2008
2017-11-19T13:52:44.461Z,2256
2017-11-19T13:53:53.582Z,2408
2017-11-19T13:55:02.388Z,2168
2017-11-19T13:56:11.201Z,2064
2017-11-19T13:57:19.734Z,1884
2017-11-19T13:58:28.279Z,1836
2017-11-19T13:59:36.817Z,1744
2017-11-19T14:00:45.360Z,1688
2017-11-19T14:01:53.888Z,1700
2017-11-19T14:03:02.697Z,1728
2017-11-19T14:04:11.525Z,1756
2017-11-19T14:05:20.062Z,1792
2017-11-19T14:06:28.874Z,1820
2017-11-19T14:07:37.958Z,1820
2017-11-19T14:08:46.501Z,1812
2017-11-19T14:09:55.585Z,1800
2017-11-19T14:11:04.672Z,1780
2017-11-19T14:12:13.212Z,1768
2017-11-19T14:13:22.405Z,1764
2017-11-19T14:14:31.493Z,1788
2017-11-19T14:15:40.334Z,1908
2017-11-19T14:16:48.876Z,1972
2017-11-19T14:17:57.692Z,2132
2017-11-19T14:19:06.227Z,2044
2017-11-19T14:20:15.306Z,2032
2017-11-19T14:21:23.841Z,2036
2017-11-19T14:22:32.655Z,2036
2017-11-19T14:23:41.735Z,2028
2017-11-19T14:24:50.824Z,2000
2017-11-19T14:25:59.633Z,1984
2017-11-19T14:27:08.171Z,1956
2017-11-19T14:28:17.251Z,1924
2017-11-19T14:29:26.058Z,1896
2017-11-19T14:30:34.871Z,1852
2017-11-19T14:31:43.682Z,1800
2017-11-19T14:32:52.219Z,1780
2017-11-19T14:34:01.035Z,1800
2017-11-19T14:35:09.573Z,1948
2017-11-19T14:36:18.392Z,2120
2017-11-19T14:37:27.197Z,2136
2017-11-19T14:38:36.008Z,2220
2017-11-19T14:39:44.548Z,2040
2017-11-19T14:40:53.085Z,2012
2017-11-19T14:42:01.911Z,1916
2017-11-19T14:43:10.450Z,1744
2017-11-19T14:44:19.267Z,1540
2017-11-19T14:45:27.807Z,1396
2017-11-19T14:46:36.628Z,1364
2017-11-19T14:47:45.712Z,1344
2017-11-19T14:48:55.064Z,1320
2017-11-19T14:50:03.876Z,1300
2017-11-19T14:51:13.225Z,1308
2017-11-19T14:52:21.766Z,1260
2017-11-19T14:53:30.312Z,1248
2017-11-19T14:54:38.863Z,1236
2017-11-19T14:55:47.386Z,1220
2017-11-19T14:56:56.218Z,1236
2017-11-19T14:58:04.754Z,1232
2017-11-19T14:59:13.833Z,1220
2017-11-19T15:00:22.643Z,1200
2017-11-19T15:01:31.449Z,1184
2017-11-19T15:02:40.260Z,1196
2017-11-19T15:03:48.800Z,1160
2017-11-19T15:04:57.614Z,1044
2017-11-19T15:06:06.453Z,932
2017-11-19T15:07:15.538Z,912
2017-11-19T15:08:24.351Z,952
2017-11-19T15:09:33.957Z,972
2017-11-19T15:10:42.768Z,948
2017-11-19T15:11:51.848Z,880
2017-11-19T15:13:00.388Z,800
2017-11-19T15:14:09.471Z,740
2017-11-19T15:15:18.481Z,720
2017-11-19T15:16:27.287Z,652
2017-11-19T15:17:36.368Z,580
2017-11-19T15:18:45.225Z,520
2017-11-19T15:19:54.312Z,468
2017-11-19T15:21:03.405Z,444
2017-11-19T15:22:12.222Z,424
2017-11-19T15:23:20.768Z,396
2017-11-19T15:24:29.611Z,364
2017-11-19T15:25:38.420Z,320
2017-11-19T15:26:47.021Z,288
2017-11-19T15:27:55.556Z,256
2017-11-19T15:29:04.637Z,196
2017-11-19T15:30:13.173Z,176
2017-11-19T15:31:21.982Z,212
2017-11-19T15:32:30.791Z,192
2017-11-19T15:33:39.879Z,180
2017-11-19T15:34:48.687Z,172
2017-11-19T15:35:57.768Z,176
2017-11-19T15:37:06.856Z,180
2017-11-19T15:38:15.695Z,172
2017-11-19T15:39:24.496Z,160
2017-11-19T15:40:33.305Z,148
2017-11-19T15:41:42.400Z,136
2017-11-19T15:42:51.208Z,120
2017-11-19T15:44:00.036Z,104
2017-11-19T15:45:08.852Z,92
2017-11-19T15:46:17.442Z,80
2017-11-19T15:47:25.979Z,72
2017-11-19T15:48:34.788Z,60
2017-11-19T15:49:43.602Z,52
2017-11-19T15:50:52.410Z,48
2017-11-19T15:52:01.498Z,40
2017-11-19T15:53:10.035Z,36
2017-11-19T15:54:18.573Z,24
2017-11-19T15:55:27.417Z,20
2017-11-19T15:56:36.226Z,12
2017-11-19T15:57:44.766Z,12
2017-11-19T15:58:53.579Z,12
2017-11-19T16:00:02.116Z,8